Time;durP1;ratioP1;P1;durP2;ratioP2;P2;SDS_P1;SDS_P2;PMS_P1;PMS_P2;Temp;Humidity;BMP_temperature;BMP_pressure;BME280_temperature;BME280_humidity;BME280_pressure;Samples;Min_cycle;Max_cycle;Signal;HPM_P1;HPM_P2
2022/10/07 00:01:21;;;;;;;55.28;51.60;;;;;;;7.07;100.00;102267.75;6156549;23;20021;-82
2022/10/07 00:03:50;;;;;;;53.88;50.47;;;;;;;7.14;100.00;102270.69;6156708;23;20029;-80
2022/10/07 00:06:21;;;;;;;52.10;48.95;;;;;;;7.18;100.00;102277.34;6156368;23;20084;-82
2022/10/07 00:08:51;;;;;;;52.40;49.13;;;;;;;7.10;100.00;102264.00;6156105;23;20025;-81
2022/10/07 00:11:21;;;;;;;42.47;39.72;;;;;;;6.82;100.00;102268.41;6156063;23;20092;-82
2022/10/07 00:13:51;;;;;;;40.83;38.20;;;;;;;6.74;100.00;102266.47;6155326;23;20435;-81
2022/10/07 00:16:23;;;;;;;41.42;38.58;;;;;;;6.80;100.00;102270.34;6155882;23;20053;-82
2022/10/07 00:18:51;;;;;;;40.93;38.37;;;;;;;6.82;100.00;102274.53;6156600;23;20028;-82
2022/10/07 00:21:26;;;;;;;55.67;52.17;;;;;;;6.96;100.00;102264.47;6156966;23;20126;-81
2022/10/07 00:23:53;;;;;;;52.17;48.95;;;;;;;6.99;100.00;102269.47;6156650;23;20080;-82
2022/10/07 00:26:24;;;;;;;57.85;54.33;;;;;;;6.95;100.00;102268.09;6157161;23;20026;-81
2022/10/07 00:28:51;;;;;;;53.10;49.75;;;;;;;7.06;100.00;102274.03;6156665;23;20096;-82
2022/10/07 00:31:20;;;;;;;59.20;55.60;;;;;;;7.13;100.00;102270.81;6156624;23;20029;-81
2022/10/07 00:33:48;;;;;;;63.00;59.20;;;;;;;7.13;100.00;102273.44;6155722;23;20025;-82
2022/10/07 00:36:16;;;;;;;64.00;59.83;;;;;;;7.07;100.00;102272.22;6155255;23;20022;-82
2022/10/07 00:38:44;;;;;;;60.33;56.42;;;;;;;7.02;100.00;102269.16;6156288;23;20060;-83
2022/10/07 00:41:18;;;;;;;57.50;54.00;;;;;;;6.76;100.00;102280.38;6155970;23;20018;-83
2022/10/07 00:43:45;;;;;;;64.57;60.67;;;;;;;6.77;100.00;102275.94;6156165;23;20029;-84
2022/10/07 00:46:23;;;;;;;64.93;61.00;;;;;;;6.85;100.00;102278.69;6155784;23;20324;-82
2022/10/07 00:48:50;;;;;;;66.07;62.17;;;;;;;6.79;100.00;102274.81;6155752;23;20458;-82
2022/10/07 00:51:17;;;;;;;75.63;71.40;;;;;;;6.89;100.00;102275.59;6155714;23;20447;-83
2022/10/07 00:53:50;;;;;;;77.20;72.43;;;;;;;6.93;100.00;102275.31;6156309;23;20080;-83
2022/10/07 00:56:17;;;;;;;83.95;79.00;;;;;;;6.84;100.00;102277.03;6156140;23;20096;-82
2022/10/07 00:58:46;;;;;;;67.38;63.28;;;;;;;6.80;100.00;102275.63;6155607;23;20056;-82
2022/10/07 01:01:13;;;;;;;67.38;63.08;;;;;;;6.73;100.00;102274.56;6156233;23;20043;-82
2022/10/07 01:03:41;;;;;;;78.20;73.43;;;;;;;6.75;100.00;102275.25;6156068;23;20088;-82
2022/10/07 01:06:09;;;;;;;72.85;68.47;;;;;;;6.50;100.00;102274.84;6156218;23;20026;-83
2022/10/07 01:08:36;;;;;;;66.20;61.90;;;;;;;6.25;100.00;102263.09;6156713;23;20053;-81
2022/10/07 01:11:14;;;;;;;59.45;55.30;;;;;;;6.55;100.00;102262.06;6156080;23;20448;-83
2022/10/07 01:13:56;;;;;;;62.40;58.03;;;;;;;6.39;100.00;102253.91;6155952;23;20092;-81
2022/10/07 01:16:29;;;;;;;64.07;59.45;;;;;;;6.68;100.00;102263.56;6156113;23;20032;-82
2022/10/07 01:19:04;;;;;;;43.08;40.17;;;;;;;7.00;100.00;102268.50;6155670;23;20317;-82
2022/10/07 01:21:40;;;;;;;44.15;40.58;;;;;;;6.84;100.00;102266.47;6156064;23;20328;-82
2022/10/07 01:24:19;;;;;;;43.33;40.13;;;;;;;6.57;100.00;102270.69;6156207;23;20022;-83
2022/10/07 01:26:56;;;;;;;43.72;40.55;;;;;;;6.38;100.00;102266.28;6156493;23;20017;-82
2022/10/07 01:29:29;;;;;;;38.75;35.50;;;;;;;6.62;100.00;102275.53;6155100;23;20053;-82
2022/10/07 01:32:03;;;;;;;39.88;37.05;;;;;;;6.55;100.00;102266.53;6155746;23;20096;-82
2022/10/07 01:34:33;;;;;;;45.17;41.38;;;;;;;6.40;100.00;102274.03;6156262;23;20097;-81
2022/10/07 01:37:06;;;;;;;42.42;39.25;;;;;;;6.16;100.00;102258.63;6156206;23;20510;-83
2022/10/07 01:39:40;;;;;;;43.25;40.20;;;;;;;6.30;100.00;102267.97;6157035;23;20022;-81
2022/10/07 01:42:09;;;;;;;42.13;39.00;;;;;;;6.29;100.00;102264.47;6155536;23;20017;-82
2022/10/07 01:44:36;;;;;;;43.20;39.80;;;;;;;5.94;100.00;102265.84;6155618;23;20025;-81
2022/10/07 01:47:03;;;;;;;41.88;38.88;;;;;;;6.09;100.00;102260.19;6155712;23;20084;-81
2022/10/07 01:49:30;;;;;;;41.75;39.03;;;;;;;6.14;100.00;102263.22;6155212;23;20313;-83
2022/10/07 01:52:14;;;;;;;49.35;45.70;;;;;;;6.06;100.00;102266.56;6155942;23;20025;-81
2022/10/07 01:54:56;;;;;;;41.35;37.95;;;;;;;6.03;100.00;102273.94;6155390;23;20083;-83
2022/10/07 01:57:32;;;;;;;40.55;37.55;;;;;;;5.91;100.00;102265.28;6156005;23;20025;-81
2022/10/07 02:03:21;;;;;;;45.63;42.00;;;;;;;5.85;100.00;102269.28;6147833;23;20441;-81
2022/10/07 02:05:53;;;;;;;65.80;49.47;;;;;;;5.41;100.00;102267.94;6155989;23;20025;-82
2022/10/07 02:08:32;;;;;;;95.75;62.75;;;;;;;5.82;100.00;102284.56;6156374;23;20067;-82
2022/10/07 02:11:12;;;;;;;78.75;53.97;;;;;;;6.21;100.00;102271.44;6155615;23;20042;-82
2022/10/07 02:13:47;;;;;;;58.38;47.30;;;;;;;5.58;100.00;102267.28;6155260;23;20017;-82
2022/10/07 02:16:18;;;;;;;58.22;49.00;;;;;;;5.83;100.00;102279.13;6156013;23;20033;-82
2022/10/07 02:18:50;;;;;;;51.77;47.03;;;;;;;6.20;100.00;102281.13;6155435;23;20616;-82
2022/10/07 02:21:22;;;;;;;42.75;39.25;;;;;;;6.42;100.00;102274.75;6155202;23;20088;-81
2022/10/07 02:23:52;;;;;;;73.30;68.30;;;;;;;6.49;100.00;102270.56;6156211;23;20521;-82
2022/10/07 02:26:22;;;;;;;61.80;57.92;;;;;;;6.38;100.00;102281.25;6156385;23;20088;-83
2022/10/07 02:28:54;;;;;;;62.88;58.78;;;;;;;6.55;100.00;102280.56;6155814;23;20083;-81
2022/10/07 02:31:24;;;;;;;64.18;60.10;;;;;;;6.43;100.00;102273.75;6156213;23;20084;-82
2022/10/07 02:33:56;;;;;;;56.70;53.28;;;;;;;6.24;100.00;102276.44;6156716;23;20021;-82
2022/10/07 02:36:29;;;;;;;53.05;49.75;;;;;;;6.36;100.00;102276.13;6155697;23;20108;-83
2022/10/07 02:38:59;;;;;;;47.50;44.33;;;;;;;6.36;100.00;102289.34;6155981;23;20544;-81
2022/10/07 02:41:34;;;;;;;53.28;49.67;;;;;;;6.41;100.00;102286.25;6155877;23;20088;-84
2022/10/07 02:44:13;;;;;;;65.15;61.25;;;;;;;6.17;100.00;102289.31;6155998;23;20021;-82
2022/10/07 02:46:47;;;;;;;62.58;58.78;;;;;;;6.51;100.00;102302.13;6155986;23;20018;-83
2022/10/07 02:49:17;;;;;;;65.60;61.35;;;;;;;6.19;100.00;102298.75;6155964;23;20021;-82
2022/10/07 02:51:50;;;;;;;72.50;68.13;;;;;;;6.32;100.00;102295.84;6156083;23;20052;-82
2022/10/07 02:54:22;;;;;;;85.45;80.35;;;;;;;6.04;100.00;102301.97;6156138;23;20060;-82
2022/10/07 02:56:50;;;;;;;77.00;72.10;;;;;;;5.97;100.00;102299.88;6156306;23;20096;-82
2022/10/07 02:59:22;;;;;;;73.75;69.00;;;;;;;5.97;100.00;102307.78;6155722;23;20092;-83
2022/10/07 03:01:53;;;;;;;79.13;74.38;;;;;;;6.00;100.00;102306.69;6155727;23;20477;-81
2022/10/07 03:04:22;;;;;;;59.97;56.13;;;;;;;6.00;100.00;102306.69;6156150;23;20025;-82
2022/10/07 03:06:49;;;;;;;65.32;61.30;;;;;;;5.78;100.00;102309.50;6156792;23;20463;-81
2022/10/07 03:09:16;;;;;;;57.80;54.15;;;;;;;5.89;100.00;102301.50;6158703;23;20026;-81
2022/10/07 03:11:48;;;;;;;41.17;38.38;;;;;;;5.80;100.00;102297.84;6158404;23;20150;-81
2022/10/07 03:14:16;;;;;;;43.37;40.17;;;;;;;5.70;100.00;102294.38;6157283;23;20021;-81
2022/10/07 03:16:44;;;;;;;45.13;42.15;;;;;;;5.74;100.00;102295.75;6157134;23;20096;-82
2022/10/07 03:19:12;;;;;;;41.35;38.60;;;;;;;5.58;100.00;102285.75;6157338;23;20021;-83
2022/10/07 03:21:40;;;;;;;37.10;34.60;;;;;;;5.42;100.00;102280.16;6158022;23;20104;-82
2022/10/07 03:24:07;;;;;;;39.63;36.72;;;;;;;5.55;100.00;102286.00;6157849;23;20550;-83
2022/10/07 03:26:35;;;;;;;38.60;35.75;;;;;;;5.66;100.00;102288.56;6157488;23;20084;-82
2022/10/07 03:29:03;;;;;;;46.95;44.15;;;;;;;5.59;100.00;102289.22;6157683;23;20050;-82
2022/10/07 03:31:30;;;;;;;48.15;44.95;;;;;;;5.46;100.00;102292.09;6158321;23;20018;-82
2022/10/07 03:33:59;;;;;;;40.08;37.47;;;;;;;5.43;100.00;102289.72;6157445;23;20406;-82
2022/10/07 03:36:27;;;;;;;39.20;36.22;;;;;;;5.51;100.00;102282.00;6157936;23;20096;-83
2022/10/07 03:38:55;;;;;;;38.22;35.72;;;;;;;5.55;100.00;102278.09;6158268;23;20092;-82
2022/10/07 03:41:23;;;;;;;40.08;37.42;;;;;;;5.66;100.00;102277.19;6158075;23;20324;-83
2022/10/07 03:43:52;;;;;;;37.70;35.50;;;;;;;5.79;100.00;102279.56;6157329;23;20018;-82
2022/10/07 03:46:24;;;;;;;36.05;33.85;;;;;;;5.85;100.00;102274.56;6157918;23;20091;-83
2022/10/07 03:48:52;;;;;;;35.13;33.05;;;;;;;5.57;100.00;102272.69;6157919;23;20081;-82
2022/10/07 03:51:22;;;;;;;35.58;33.45;;;;;;;5.61;100.00;102263.56;6157907;23;20029;-83
2022/10/07 03:53:53;;;;;;;36.35;33.95;;;;;;;5.31;100.00;102275.81;6157689;23;20101;-81
2022/10/07 03:56:21;;;;;;;39.50;36.58;;;;;;;5.05;100.00;102268.38;6157927;23;20013;-82
2022/10/07 03:58:50;;;;;;;46.28;42.40;;;;;;;4.92;100.00;102267.75;6156776;23;20029;-80
2022/10/07 04:01:17;;;;;;;63.03;58.30;;;;;;;5.22;100.00;102268.72;6156182;23;20025;-81
2022/10/07 04:03:44;;;;;;;59.83;54.90;;;;;;;5.17;100.00;102263.81;6155991;23;20021;-81
2022/10/07 04:06:12;;;;;;;58.63;54.10;;;;;;;4.72;100.00;102277.34;6155790;23;20033;-81
2022/10/07 04:08:44;;;;;;;72.57;67.47;;;;;;;5.27;100.00;102266.53;6156485;23;20018;-81
2022/10/07 04:11:17;;;;;;;52.65;49.08;;;;;;;5.21;100.00;102274.94;6157413;23;20022;-82
2022/10/07 04:13:46;;;;;;;38.40;35.70;;;;;;;5.13;100.00;102283.50;6157172;23;20018;-83
2022/10/07 04:16:14;;;;;;;37.78;35.13;;;;;;;5.25;100.00;102274.53;6157022;23;20378;-82
2022/10/07 04:18:41;;;;;;;37.67;34.88;;;;;;;5.15;100.00;102275.47;6157060;23;20025;-83
2022/10/07 04:21:08;;;;;;;36.50;33.72;;;;;;;5.26;100.00;102281.50;6156726;23;20065;-82
2022/10/07 04:23:36;;;;;;;33.67;31.27;;;;;;;5.16;100.00;102285.03;6157053;23;20025;-82
2022/10/07 04:26:10;;;;;;;37.20;34.60;;;;;;;5.39;100.00;102289.16;6154289;23;20085;-82
2022/10/07 04:28:41;;;;;;;36.92;34.33;;;;;;;5.26;100.00;102292.03;6156731;23;20517;-82
2022/10/07 04:31:10;;;;;;;33.00;30.70;;;;;;;5.13;100.00;102290.56;6157109;23;20049;-82
2022/10/07 04:33:40;;;;;;;32.25;30.02;;;;;;;5.08;100.00;102301.50;6156721;23;20300;-82
2022/10/07 04:36:10;;;;;;;36.50;33.08;;;;;;;5.21;100.00;102299.50;6156506;23;20029;-82
2022/10/07 04:38:45;;;;;;;33.13;30.83;;;;;;;5.18;100.00;102305.03;6157287;23;20026;-82
2022/10/07 04:41:14;;;;;;;35.00;32.60;;;;;;;5.21;100.00;102315.31;6156708;23;20022;-82
2022/10/07 04:43:41;;;;;;;36.15;33.85;;;;;;;5.35;100.00;102311.47;6157272;23;20025;-82
2022/10/07 04:46:12;;;;;;;34.20;31.80;;;;;;;5.19;100.00;102317.22;6155647;23;20051;-82
2022/10/07 04:48:40;;;;;;;34.97;32.17;;;;;;;5.23;100.00;102323.91;6156231;23;20575;-81
2022/10/07 04:51:09;;;;;;;33.00;30.60;;;;;;;4.60;100.00;102323.13;6157039;23;20028;-81
2022/10/07 04:53:39;;;;;;;37.92;35.35;;;;;;;5.09;100.00;102326.88;6156792;23;20048;-81
2022/10/07 04:56:07;;;;;;;35.33;32.75;;;;;;;5.27;100.00;102322.66;6156817;23;20022;-81
2022/10/07 04:58:36;;;;;;;34.05;31.85;;;;;;;5.25;100.00;102327.22;6156418;23;20533;-84
2022/10/07 05:01:08;;;;;;;33.10;30.77;;;;;;;5.61;100.00;102330.28;6155559;23;20033;-81
2022/10/07 05:03:38;;;;;;;31.92;29.75;;;;;;;5.60;100.00;102322.50;6157360;23;20017;-82
2022/10/07 05:06:06;;;;;;;31.83;29.55;;;;;;;5.94;100.00;102333.59;6157152;23;20057;-82
2022/10/07 05:08:33;;;;;;;34.53;31.55;;;;;;;6.34;100.00;102335.31;6156670;23;20362;-85
2022/10/07 05:11:04;;;;;;;35.95;33.45;;;;;;;9.28;100.00;102332.53;6157533;23;20030;-83
2022/10/07 05:13:33;;;;;;;33.53;30.65;;;;;;;7.01;100.00;102325.63;6155705;23;20316;-80
2022/10/07 05:16:02;;;;;;;38.42;35.72;;;;;;;6.70;100.00;102328.47;6153824;23;20029;-81
2022/10/07 05:18:30;;;;;;;52.75;48.55;;;;;;;7.09;100.00;102323.94;6155185;23;20025;-81
2022/10/07 05:20:57;;;;;;;52.15;48.85;;;;;;;7.16;100.00;102329.47;6155545;23;20021;-79
2022/10/07 05:23:27;;;;;;;55.75;51.83;;;;;;;7.23;100.00;102322.66;6155486;23;20402;-80
2022/10/07 05:25:58;;;;;;;57.78;54.17;;;;;;;7.20;100.00;102330.88;6155312;23;20025;-82
2022/10/07 05:28:25;;;;;;;45.70;42.40;;;;;;;7.41;100.00;102328.00;6154579;23;20033;-81
2022/10/07 05:31:03;;;;;;;49.28;46.20;;;;;;;7.89;100.00;102329.56;6155427;23;20022;-81
2022/10/07 05:33:30;;;;;;;46.70;43.30;;;;;;;7.47;100.00;102332.69;6154945;23;20482;-79
2022/10/07 05:35:58;;;;;;;57.30;53.67;;;;;;;7.99;100.00;102329.50;6155397;23;20092;-80
2022/10/07 05:38:24;;;;;;;50.42;47.25;;;;;;;8.06;100.00;102325.28;6154134;23;20406;-80
2022/10/07 05:40:57;;;;;;;47.85;42.92;;;;;;;8.36;100.00;102334.66;6154832;23;20022;-81
2022/10/07 05:43:25;;;;;;;46.40;43.30;;;;;;;8.18;100.00;102333.84;6154522;23;20435;-79
2022/10/07 05:46:00;;;;;;;40.33;37.50;;;;;;;8.55;100.00;102352.22;6152477;23;20092;-79
2022/10/07 05:48:30;;;;;;;40.25;37.70;;;;;;;8.56;100.00;102350.41;6153496;23;20097;-80
2022/10/07 05:50:56;;;;;;;45.25;42.15;;;;;;;8.45;100.00;102357.63;6155182;23;20025;-80
2022/10/07 05:53:24;;;;;;;43.30;40.45;;;;;;;8.97;100.00;102362.16;6154693;23;20076;-82
2022/10/07 05:55:50;;;;;;;40.25;37.65;;;;;;;8.62;100.00;102363.03;6155180;23;20104;-80
2022/10/07 05:58:17;;;;;;;41.25;38.40;;;;;;;8.98;100.00;102363.81;6155018;23;20091;-79
2022/10/07 06:00:51;;;;;;;44.78;41.42;;;;;;;9.47;100.00;102366.78;6154674;23;20021;-80
2022/10/07 06:03:18;;;;;;;42.47;39.67;;;;;;;9.83;100.00;102358.59;6155035;23;20092;-81
2022/10/07 06:05:46;;;;;;;44.60;41.47;;;;;;;9.70;100.00;102363.53;6154384;23;20379;-81
2022/10/07 06:08:13;;;;;;;40.60;37.25;;;;;;;10.00;100.00;102360.31;6155522;23;20021;-81
2022/10/07 06:13:24;;;;;;;39.13;36.45;;;;;;;10.91;100.00;102355.94;6154906;23;20342;-80
2022/10/07 06:15:53;;;;;;;41.55;38.55;;;;;;;10.72;100.00;102351.81;6155471;23;20029;-81
2022/10/07 06:18:20;;;;;;;43.13;40.25;;;;;;;13.01;100.00;102345.28;6156023;23;20455;-82
2022/10/07 06:20:55;;;;;;;50.55;47.65;;;;;;;11.40;100.00;102340.69;6157260;23;20490;-85
2022/10/07 06:23:24;;;;;;;49.80;46.75;;;;;;;11.27;100.00;102344.91;6157651;23;20021;-86
2022/10/07 06:25:56;;;;;;;48.90;46.15;;;;;;;15.94;100.00;102333.56;6156687;23;20502;-82
2022/10/07 06:28:30;;;;;;;49.00;45.72;;;;;;;12.15;100.00;102340.16;6156880;23;20032;-85
2022/10/07 06:31:03;;;;;;;37.38;34.92;;;;;;;11.89;100.00;102342.31;6157019;23;20026;-85
2022/10/07 06:33:29;;;;;;;38.00;35.22;;;;;;;11.81;100.00;102337.84;6157232;23;20025;-86
2022/10/07 06:36:05;;;;;;;37.92;35.10;;;;;;;12.03;100.00;102346.09;6155776;23;20021;-84
2022/10/07 06:38:38;;;;;;;38.83;35.92;;;;;;;11.86;100.00;102332.88;6158221;23;20072;-85
2022/10/07 06:41:05;;;;;;;;;;;;;;;12.38;100.00;102337.53;6156780;23;20084;-83
2022/10/07 06:43:40;;;;;;;43.67;41.13;;;;;;;12.57;100.00;102328.19;6157707;23;19917;-86
2022/10/07 06:46:08;;;;;;;48.55;44.92;;;;;;;13.00;100.00;102344.47;6158582;23;20025;-81
2022/10/07 06:48:43;;;;;;;46.88;44.15;;;;;;;13.46;100.00;102347.00;6158129;23;20064;-84
2022/10/07 06:51:20;;;;;;;45.72;42.78;;;;;;;13.57;100.00;102339.53;6157243;23;20022;-87
2022/10/07 06:53:52;;;;;;;39.97;37.28;;;;;;;13.46;100.00;102335.47;6160080;23;20030;-86
2022/10/07 06:56:19;;;;;;;37.33;35.03;;;;;;;14.03;100.00;102324.03;6160071;23;20049;-88
2022/10/07 06:58:48;;;;;;;38.10;35.15;;;;;;;13.77;100.00;102329.06;6160342;23;20021;-85
2022/10/07 07:01:15;;;;;;;37.05;34.42;;;;;;;14.33;100.00;102338.09;6162195;23;20036;-86
2022/10/07 07:03:45;;;;;;;36.78;34.17;;;;;;;13.17;100.00;102328.28;6159319;23;20028;-83
2022/10/07 07:06:12;;;;;;;38.65;35.88;;;;;;;14.49;100.00;102337.00;6159898;23;20025;-84
2022/10/07 07:08:58;;;;;;;38.63;35.95;;;;;;;15.28;100.00;102342.13;6158543;23;20057;-86
2022/10/07 07:11:40;;;;;;;42.30;39.03;;;;;;;15.57;100.00;102334.84;6158184;23;20021;-87
2022/10/07 07:14:09;;;;;;;44.70;41.77;;;;;;;14.88;100.00;102341.03;6159273;23;20018;-86
2022/10/07 07:16:36;;;;;;;45.97;42.72;;;;;;;14.79;100.00;102340.34;6162404;23;20455;-86
2022/10/07 07:19:07;;;;;;;39.53;36.67;;;;;;;15.90;100.00;102339.53;6162331;23;20018;-86
2022/10/07 07:21:40;;;;;;;41.00;38.03;;;;;;;16.67;100.00;102343.53;6163057;23;20390;-85
2022/10/07 07:24:14;;;;;;;42.05;39.33;;;;;;;17.24;100.00;102344.72;6160161;23;20021;-86
2022/10/07 07:27:02;;;;;;;40.55;37.42;;;;;;;17.57;100.00;102347.28;6171725;23;20029;-85
2022/10/07 07:29:31;;;;;;;45.20;42.22;;;;;;;17.79;100.00;102345.19;6163631;23;20022;-86
2022/10/07 07:32:07;;;;;;;46.55;43.28;;;;;;;18.16;100.00;102340.00;6166214;23;20021;-85
2022/10/07 07:34:42;;;;;;;44.53;41.15;;;;;;;17.90;100.00;102334.78;6170537;23;20069;-86
2022/10/07 07:37:17;;;;;;;41.67;38.22;;;;;;;18.56;100.00;102333.50;6162627;23;20385;-86
2022/10/07 07:42:46;;;;;;;45.95;42.35;;;;;;;18.73;100.00;102331.94;6165619;23;20021;-86
2022/10/07 07:45:18;;;;;;;47.42;43.70;;;;;;;19.71;100.00;102333.75;6169051;23;20026;-86
2022/10/07 07:47:48;;;;;;;49.22;46.00;;;;;;;18.91;100.00;102331.09;6163019;23;20033;-87
2022/10/07 07:50:16;;;;;;;47.88;43.95;;;;;;;19.30;100.00;102329.84;6164361;23;20080;-85
2022/10/07 07:52:45;;;;;;;59.75;55.38;;;;;;;20.36;100.00;102319.50;6161782;23;20025;-87
2022/10/07 07:55:23;;;;;;;54.63;51.38;;;;;;;19.39;100.00;102327.69;6159115;23;20028;-86
2022/10/07 07:57:52;;;;;;;53.90;49.78;;;;;;;18.47;100.00;102322.19;6170099;23;20025;-85
2022/10/07 08:00:19;;;;;;;52.15;48.40;;;;;;;17.48;100.00;102329.75;6170817;23;20021;-86
2022/10/07 08:02:49;;;;;;;50.03;46.45;;;;;;;17.66;100.00;102330.94;6158079;23;20473;-86
2022/10/07 08:05:20;;;;;;;40.33;37.10;;;;;;;17.33;100.00;102329.19;6158039;23;20049;-84
2022/10/07 08:07:54;;;;;;;40.05;36.65;;;;;;;17.13;100.00;102315.84;6158751;23;20096;-86
2022/10/07 08:10:24;;;;;;;39.40;36.40;;;;;;;18.03;100.00;102319.41;6158254;23;20030;-85
2022/10/07 08:12:50;;;;;;;40.00;36.45;;;;;;;19.54;100.00;102313.81;6157257;23;20517;-85
2022/10/07 08:15:24;;;;;;;40.50;37.22;;;;;;;20.25;100.00;102312.22;6158070;23;20443;-86
2022/10/07 08:18:01;;;;;;;41.60;38.22;;;;;;;20.64;100.00;102308.06;6158627;23;20467;-87
2022/10/07 08:20:31;;;;;;;42.13;37.80;;;;;;;20.54;97.05;102305.13;6158697;23;20051;-87
2022/10/07 08:23:05;;;;;;;42.63;39.17;;;;;;;19.88;99.29;102304.28;6158225;23;20030;-86
2022/10/07 08:25:42;;;;;;;42.97;39.55;;;;;;;18.73;100.00;102308.53;6158534;23;20040;-85
2022/10/07 08:28:09;;;;;;;40.55;37.58;;;;;;;20.54;96.18;102297.84;6159275;23;20022;-88
2022/10/07 08:30:46;;;;;;;39.65;37.05;;;;;;;20.72;84.86;102306.88;6158566;23;20025;-87
2022/10/07 08:33:20;;;;;;;37.80;35.15;;;;;;;20.90;82.64;102300.53;6158876;23;20077;-86
2022/10/07 08:35:51;;;;;;;40.65;37.28;;;;;;;20.88;79.31;102308.03;6157972;23;20044;-86
2022/10/07 08:38:31;;;;;;;40.88;37.55;;;;;;;20.86;92.21;102302.06;6158066;23;20022;-87
2022/10/07 08:41:22;;;;;;;39.22;35.80;;;;;;;21.55;80.85;102299.47;6159138;23;20029;-87
2022/10/07 08:43:51;;;;;;;38.28;35.90;;;;;;;22.44;80.29;102291.56;6158112;23;20018;-86
2022/10/07 08:46:38;;;;;;;41.10;38.03;;;;;;;22.71;76.27;102299.81;6156820;23;20464;-83
2022/10/07 08:49:17;;;;;;;37.90;35.40;;;;;;;23.46;69.47;102294.81;6158571;23;20045;-87
2022/10/07 08:51:49;;;;;;;38.55;35.85;;;;;;;23.57;65.59;102293.88;6157866;23;20105;-86
2022/10/07 08:54:33;;;;;;;40.45;37.83;;;;;;;23.19;72.22;102290.19;6158157;23;20080;-87
2022/10/07 08:57:14;;;;;;;39.53;37.22;;;;;;;23.20;69.95;102288.28;6158343;23;20065;-86
2022/10/07 09:00:05;;;;;;;42.80;39.90;;;;;;;24.30;62.06;102283.41;6158525;23;20033;-86
2022/10/07 09:02:42;;;;;;;42.03;38.92;;;;;;;23.22;71.08;102292.38;6156952;23;20021;-86
2022/10/07 09:05:20;;;;;;;41.50;38.63;;;;;;;23.22;71.02;102283.44;6158173;23;20022;-86
2022/10/07 09:07:51;;;;;;;41.85;38.85;;;;;;;24.66;68.89;102280.94;6157740;23;20017;-85
2022/10/07 09:10:31;;;;;;;40.63;37.50;;;;;;;24.03;66.37;102286.19;6157490;23;20087;-86
2022/10/07 09:13:04;;;;;;;41.67;38.75;;;;;;;25.04;55.77;102287.94;6157943;23;20088;-87
2022/10/07 09:15:41;;;;;;;40.85;37.95;;;;;;;22.98;72.73;102275.56;6158050;23;20029;-86
2022/10/07 09:18:30;;;;;;;38.92;36.10;;;;;;;23.21;61.08;102276.38;6156120;23;20017;-86
2022/10/07 09:24:19;;;;;;;37.83;35.33;;;;;;;24.92;57.75;102265.59;6140808;23;20431;-88
2022/10/07 09:26:59;;;;;;;37.75;35.50;;;;;;;24.18;61.53;102256.44;6155924;23;20032;-86
2022/10/07 09:29:29;;;;;;;37.95;35.55;;;;;;;25.71;57.75;102266.38;6154026;23;20025;-85
2022/10/07 09:31:57;;;;;;;40.13;37.60;;;;;;;24.13;59.27;102256.41;6155795;23;20065;-88
2022/10/07 09:34:27;;;;;;;39.90;37.13;;;;;;;25.70;59.65;102256.59;6158023;23;20446;-87
2022/10/07 09:37:14;;;;;;;40.38;37.42;;;;;;;25.77;56.94;102252.50;6163301;23;20022;-87
2022/10/07 09:39:42;;;;;;;39.70;36.80;;;;;;;26.16;53.51;102237.56;6161110;23;20248;-87
2022/10/07 09:42:15;;;;;;;37.83;34.97;;;;;;;25.69;54.27;102250.34;6163624;23;20025;-89
2022/10/07 09:44:51;;;;;;;37.17;34.63;;;;;;;26.35;49.71;102241.31;6159403;23;20092;-87
2022/10/07 09:47:40;;;;;;;38.22;35.63;;;;;;;26.73;50.70;102233.63;6161583;23;20017;-89
2022/10/07 09:50:27;;;;;;;39.58;36.85;;;;;;;24.80;52.39;102224.25;6157358;23;20025;-87
2022/10/07 09:53:19;;;;;;;39.30;36.60;;;;;;;25.85;53.07;102232.13;6167172;23;20044;-89
2022/10/07 09:55:46;;;;;;;39.90;36.72;;;;;;;25.42;59.38;102225.25;6161588;23;20209;-87
2022/10/07 09:58:18;;;;;;;39.70;37.03;;;;;;;24.71;56.17;102229.38;6164607;23;20277;-87
2022/10/07 10:00:49;;;;;;;41.20;37.63;;;;;;;26.14;57.85;102216.03;6157008;23;20069;-88
2022/10/07 10:03:17;;;;;;;39.53;36.78;;;;;;;27.31;52.48;102208.53;6161431;23;20366;-87
2022/10/07 10:05:57;;;;;;;42.97;39.65;;;;;;;26.44;49.89;102209.69;6159848;23;20025;-89
2022/10/07 10:08:35;;;;;;;40.00;37.42;;;;;;;27.61;51.63;102208.31;6160619;23;20021;-87
2022/10/07 10:11:04;;;;;;;40.65;37.85;;;;;;;27.03;44.31;102204.59;6158538;23;20386;-87
2022/10/07 10:13:34;;;;;;;43.25;39.85;;;;;;;25.87;48.35;102205.47;6157642;23;20103;-86
2022/10/07 10:16:07;;;;;;;39.92;36.92;;;;;;;25.11;58.89;102209.69;6161924;23;20017;-87
2022/10/07 10:18:39;;;;;;;38.85;35.92;;;;;;;26.01;51.68;102189.38;6168472;23;20021;-86
2022/10/07 10:21:31;;;;;;;38.95;36.22;;;;;;;27.23;49.97;102193.59;6162923;23;20021;-87
2022/10/07 10:24:10;;;;;;;41.25;38.47;;;;;;;27.31;48.08;102184.81;6145704;23;20033;-86
2022/10/07 10:27:03;;;;;;;43.30;40.50;;;;;;;26.69;52.51;102184.31;6167219;23;20017;-88
2022/10/07 10:29:53;;;;;;;40.13;36.97;;;;;;;26.93;47.09;102170.84;6163474;23;20394;-87
2022/10/07 10:32:47;;;;;;;44.35;41.45;;;;;;;24.09;58.91;102173.88;6161165;23;20096;-86
2022/10/07 10:35:27;;;;;;;42.10;39.55;;;;;;;25.11;61.71;102168.06;6161192;23;20395;-86
2022/10/07 10:38:18;;;;;;;42.63;40.13;;;;;;;25.77;57.21;102156.44;6157136;23;20021;-85
2022/10/07 10:40:58;;;;;;;49.08;46.08;;;;;;;25.57;59.59;102154.59;6158113;23;20025;-83
2022/10/07 10:43:44;;;;;;;57.50;53.90;;;;;;;26.30;53.68;102151.50;6158373;23;20032;-88
2022/10/07 10:49:45;;;;;;;48.60;45.00;;;;;;;28.27;52.88;102132.34;6150170;23;20044;-86
2022/10/07 10:56:03;;;;;;;49.90;46.53;;;;;;;25.87;47.84;102123.00;6150800;23;20024;-86
2022/10/07 10:59:08;;;;;;;48.70;45.72;;;;;;;25.50;57.08;102122.19;6155944;23;20032;-85
2022/10/07 11:01:37;;;;;;;47.33;44.63;;;;;;;25.13;51.31;102119.75;6155528;23;20025;-85
2022/10/07 11:04:34;;;;;;;48.00;45.13;;;;;;;26.13;56.83;102110.97;6158259;23;20037;-87
2022/10/07 11:07:52;;;;;;;53.42;50.10;;;;;;;26.16;52.24;102096.78;6141908;23;20029;-84
2022/10/07 11:13:22;;;;;;;51.40;48.25;;;;;;;27.48;48.67;102085.41;6115690;23;20446;-90
2022/10/07 11:16:30;;;;;;;50.75;47.60;;;;;;;29.06;49.19;102088.94;6157910;23;20264;-88
2022/10/07 11:19:06;;;;;;;42.10;39.25;;;;;;;27.29;46.93;102077.91;6154199;23;20017;-87
2022/10/07 11:21:41;;;;;;;39.70;37.28;;;;;;;27.72;48.91;102075.31;6156614;23;20036;-87
2022/10/07 11:24:17;;;;;;;40.47;37.42;;;;;;;27.35;46.51;102076.78;6155849;23;20043;-85
2022/10/07 11:26:49;;;;;;;39.13;36.45;;;;;;;27.97;46.78;102067.97;6155771;23;20025;-86
2022/10/07 11:29:34;;;;;;;37.85;35.40;;;;;;;26.73;47.19;102070.13;6161810;23;20041;-87
2022/10/07 11:32:08;;;;;;;36.40;33.70;;;;;;;27.83;47.58;102055.00;6160506;23;20022;-87
2022/10/07 11:34:44;;;;;;;37.80;35.28;;;;;;;27.74;47.17;102053.19;6162061;23;20022;-87
2022/10/07 11:37:40;;;;;;;39.45;36.85;;;;;;;27.25;49.25;102040.59;6164219;23;20022;-88
2022/10/07 11:40:16;;;;;;;38.13;35.58;;;;;;;26.09;49.53;102047.28;6160801;23;20018;-87
2022/10/07 11:42:58;;;;;;;;;;;;;;;;;;;;;
2022/10/07 11:45:33;;;;;;;35.72;33.50;;;;;;;26.64;47.77;102041.84;6157078;23;20093;-87
2022/10/07 11:48:11;;;;;;;35.83;33.28;;;;;;;26.66;47.16;102040.47;6164302;23;20435;-86
2022/10/07 11:51:02;;;;;;;37.80;35.45;;;;;;;27.42;49.60;102030.06;6164192;23;20045;-88
2022/10/07 11:53:44;;;;;;;39.65;36.95;;;;;;;26.88;47.44;102031.88;6161381;23;20026;-87
2022/10/07 11:56:34;;;;;;;38.15;35.35;;;;;;;25.30;49.52;102035.22;6163029;23;20327;-86
2022/10/07 11:59:30;;;;;;;37.00;34.70;;;;;;;25.44;52.69;102032.72;6161447;23;20032;-87